sensor_id;sensor_type;location;lat;lon;timestamp;temperature;humidity
23081;DHT22;11708;50.570;8.532;2022-07-23T00:00:46;21.40;99.90
23081;DHT22;11708;50.570;8.532;2022-07-23T00:05:38;21.30;99.90
23081;DHT22;11708;50.570;8.532;2022-07-23T00:08:05;21.10;99.90
23081;DHT22;11708;50.570;8.532;2022-07-23T00:10:31;21.10;99.90
23081;DHT22;11708;50.570;8.532;2022-07-23T00:15:23;21.00;99.90
23081;DHT22;11708;50.570;8.532;2022-07-23T00:17:49;20.90;99.90
23081;DHT22;11708;50.570;8.532;2022-07-23T00:20:15;20.90;99.90
23081;DHT22;11708;50.570;8.532;2022-07-23T00:22:51;20.80;99.90
23081;DHT22;11708;50.570;8.532;2022-07-23T00:25:17;20.80;99.90
23081;DHT22;11708;50.570;8.532;2022-07-23T00:27:43;20.70;99.90
23081;DHT22;11708;50.570;8.532;2022-07-23T00:30:09;20.80;99.90
23081;DHT22;11708;50.570;8.532;2022-07-23T00:32:48;20.80;99.90
23081;DHT22;11708;50.570;8.532;2022-07-23T00:35:14;20.80;99.90
23081;DHT22;11708;50.570;8.532;2022-07-23T00:37:39;20.80;99.90
23081;DHT22;11708;50.570;8.532;2022-07-23T00:40:05;20.70;99.90
23081;DHT22;11708;50.570;8.532;2022-07-23T00:42:32;20.70;99.90
23081;DHT22;11708;50.570;8.532;2022-07-23T00:47:24;20.60;99.90
23081;DHT22;11708;50.570;8.532;2022-07-23T00:54:41;20.60;99.90
23081;DHT22;11708;50.570;8.532;2022-07-23T00:57:07;20.50;99.90
23081;DHT22;11708;50.570;8.532;2022-07-23T00:59:32;20.50;99.90
23081;DHT22;11708;50.570;8.532;2022-07-23T01:01:58;20.40;99.90
23081;DHT22;11708;50.570;8.532;2022-07-23T01:04:24;20.40;99.90
23081;DHT22;11708;50.570;8.532;2022-07-23T01:06:49;20.40;99.90
23081;DHT22;11708;50.570;8.532;2022-07-23T01:11:41;20.30;99.90
23081;DHT22;11708;50.570;8.532;2022-07-23T01:14:15;20.30;99.90
23081;DHT22;11708;50.570;8.532;2022-07-23T01:16:43;20.20;99.90
23081;DHT22;11708;50.570;8.532;2022-07-23T01:19:10;20.20;99.90
23081;DHT22;11708;50.570;8.532;2022-07-23T01:21:38;20.20;99.90
23081;DHT22;11708;50.570;8.532;2022-07-23T01:24:05;19.90;99.90
23081;DHT22;11708;50.570;8.532;2022-07-23T01:26:30;20.20;99.90
23081;DHT22;11708;50.570;8.532;2022-07-23T01:28:56;20.20;99.90
23081;DHT22;11708;50.570;8.532;2022-07-23T01:31:21;20.10;99.90
23081;DHT22;11708;50.570;8.532;2022-07-23T01:33:47;20.20;99.90
23081;DHT22;11708;50.570;8.532;2022-07-23T01:36:13;20.10;99.90
23081;DHT22;11708;50.570;8.532;2022-07-23T01:38:39;20.20;99.90
23081;DHT22;11708;50.570;8.532;2022-07-23T01:41:04;20.00;99.90
23081;DHT22;11708;50.570;8.532;2022-07-23T01:43:30;20.10;99.90
23081;DHT22;11708;50.570;8.532;2022-07-23T01:45:55;19.90;99.90
23081;DHT22;11708;50.570;8.532;2022-07-23T01:48:21;20.00;99.90
23081;DHT22;11708;50.570;8.532;2022-07-23T01:50:47;20.00;99.90
23081;DHT22;11708;50.570;8.532;2022-07-23T01:55:39;20.00;99.90
23081;DHT22;11708;50.570;8.532;2022-07-23T02:00:31;19.90;99.90
23081;DHT22;11708;50.570;8.532;2022-07-23T02:02:56;20.30;99.90
23081;DHT22;11708;50.570;8.532;2022-07-23T02:05:24;19.90;99.90
23081;DHT22;11708;50.570;8.532;2022-07-23T02:12:42;19.90;99.90
23081;DHT22;11708;50.570;8.532;2022-07-23T02:15:08;20.10;99.90
23081;DHT22;11708;50.570;8.532;2022-07-23T02:17:33;19.80;99.90
23081;DHT22;11708;50.570;8.532;2022-07-23T02:20:00;19.80;99.90
23081;DHT22;11708;50.570;8.532;2022-07-23T02:22:25;19.80;99.90
23081;DHT22;11708;50.570;8.532;2022-07-23T02:24:51;19.70;99.90
23081;DHT22;11708;50.570;8.532;2022-07-23T02:27:16;19.80;99.90
23081;DHT22;11708;50.570;8.532;2022-07-23T02:29:42;19.80;99.90
23081;DHT22;11708;50.570;8.532;2022-07-23T02:32:07;19.80;99.90
23081;DHT22;11708;50.570;8.532;2022-07-23T02:34:33;19.80;99.90
23081;DHT22;11708;50.570;8.532;2022-07-23T02:36:59;19.80;99.90
23081;DHT22;11708;50.570;8.532;2022-07-23T02:39:24;19.80;99.90
23081;DHT22;11708;50.570;8.532;2022-07-23T02:41:50;19.80;99.90
23081;DHT22;11708;50.570;8.532;2022-07-23T02:44:15;19.70;99.90
23081;DHT22;11708;50.570;8.532;2022-07-23T02:46:41;19.70;99.90
23081;DHT22;11708;50.570;8.532;2022-07-23T02:49:06;19.70;99.90
23081;DHT22;11708;50.570;8.532;2022-07-23T02:53:58;19.70;99.90
23081;DHT22;11708;50.570;8.532;2022-07-23T02:56:23;19.70;99.90
23081;DHT22;11708;50.570;8.532;2022-07-23T03:06:07;19.70;99.90
23081;DHT22;11708;50.570;8.532;2022-07-23T03:08:32;19.70;99.90
23081;DHT22;11708;50.570;8.532;2022-07-23T03:13:24;19.70;99.90
23081;DHT22;11708;50.570;8.532;2022-07-23T03:18:15;19.60;99.90
23081;DHT22;11708;50.570;8.532;2022-07-23T03:20:41;19.60;99.90
23081;DHT22;11708;50.570;8.532;2022-07-23T03:23:07;19.30;99.90
23081;DHT22;11708;50.570;8.532;2022-07-23T03:25:32;20.10;99.90
23081;DHT22;11708;50.570;8.532;2022-07-23T03:27:58;19.40;99.90
23081;DHT22;11708;50.570;8.532;2022-07-23T03:30:24;19.40;99.90
23081;DHT22;11708;50.570;8.532;2022-07-23T03:32:49;20.70;99.90
23081;DHT22;11708;50.570;8.532;2022-07-23T03:35:15;19.40;99.90
23081;DHT22;11708;50.570;8.532;2022-07-23T03:40:06;19.50;99.90
23081;DHT22;11708;50.570;8.532;2022-07-23T03:42:32;19.50;99.90
23081;DHT22;11708;50.570;8.532;2022-07-23T03:44:58;19.50;99.90
23081;DHT22;11708;50.570;8.532;2022-07-23T03:47:23;19.50;99.90
23081;DHT22;11708;50.570;8.532;2022-07-23T03:49:49;19.50;99.90
23081;DHT22;11708;50.570;8.532;2022-07-23T03:52:15;19.60;99.90
23081;DHT22;11708;50.570;8.532;2022-07-23T03:54:40;19.50;99.90
23081;DHT22;11708;50.570;8.532;2022-07-23T03:57:06;19.60;99.90
23081;DHT22;11708;50.570;8.532;2022-07-23T04:01:58;19.50;99.90
23081;DHT22;11708;50.570;8.532;2022-07-23T04:04:23;20.10;99.90
23081;DHT22;11708;50.570;8.532;2022-07-23T04:06:49;19.50;99.90
23081;DHT22;11708;50.570;8.532;2022-07-23T04:14:06;19.40;99.90
23081;DHT22;11708;50.570;8.532;2022-07-23T04:16:32;19.30;99.90
23081;DHT22;11708;50.570;8.532;2022-07-23T04:18:58;19.30;99.90
23081;DHT22;11708;50.570;8.532;2022-07-23T04:21:24;19.00;99.90
23081;DHT22;11708;50.570;8.532;2022-07-23T04:28:42;19.40;99.90
23081;DHT22;11708;50.570;8.532;2022-07-23T04:31:07;19.60;99.90
23081;DHT22;11708;50.570;8.532;2022-07-23T04:35:59;19.40;99.90
23081;DHT22;11708;50.570;8.532;2022-07-23T04:38:24;19.20;99.90
23081;DHT22;11708;50.570;8.532;2022-07-23T04:40:51;19.40;99.90
23081;DHT22;11708;50.570;8.532;2022-07-23T04:43:16;19.40;99.90
23081;DHT22;11708;50.570;8.532;2022-07-23T04:50:34;19.40;99.90
23081;DHT22;11708;50.570;8.532;2022-07-23T04:55:25;19.40;99.90
23081;DHT22;11708;50.570;8.532;2022-07-23T05:00:17;19.50;99.90
23081;DHT22;11708;50.570;8.532;2022-07-23T05:02:42;19.40;99.90
23081;DHT22;11708;50.570;8.532;2022-07-23T05:05:08;19.40;99.90
23081;DHT22;11708;50.570;8.532;2022-07-23T05:07:34;20.40;99.90
23081;DHT22;11708;50.570;8.532;2022-07-23T05:12:25;19.50;99.90
23081;DHT22;11708;50.570;8.532;2022-07-23T05:14:51;19.80;99.90
23081;DHT22;11708;50.570;8.532;2022-07-23T05:17:18;19.60;99.90
23081;DHT22;11708;50.570;8.532;2022-07-23T05:22:09;19.60;99.90
23081;DHT22;11708;50.570;8.532;2022-07-23T05:24:35;19.60;99.90
23081;DHT22;11708;50.570;8.532;2022-07-23T05:29:26;19.60;99.90
23081;DHT22;11708;50.570;8.532;2022-07-23T05:31:51;19.60;99.90
23081;DHT22;11708;50.570;8.532;2022-07-23T05:34:17;19.70;99.90
23081;DHT22;11708;50.570;8.532;2022-07-23T05:36:43;20.90;99.90
23081;DHT22;11708;50.570;8.532;2022-07-23T05:39:08;19.70;99.90
23081;DHT22;11708;50.570;8.532;2022-07-23T05:41:34;19.70;99.90
23081;DHT22;11708;50.570;8.532;2022-07-23T05:44:00;20.40;99.90
23081;DHT22;11708;50.570;8.532;2022-07-23T05:48:51;19.70;99.90
23081;DHT22;11708;50.570;8.532;2022-07-23T05:51:21;19.70;99.90
23081;DHT22;11708;50.570;8.532;2022-07-23T05:53:47;20.20;99.90
23081;DHT22;11708;50.570;8.532;2022-07-23T05:58:39;19.70;99.90
23081;DHT22;11708;50.570;8.532;2022-07-23T06:01:04;19.70;99.90
23081;DHT22;11708;50.570;8.532;2022-07-23T06:03:30;19.80;99.90
23081;DHT22;11708;50.570;8.532;2022-07-23T06:05:56;19.90;99.90
23081;DHT22;11708;50.570;8.532;2022-07-23T06:08:21;20.00;99.90
23081;DHT22;11708;50.570;8.532;2022-07-23T06:13:13;20.00;99.90
23081;DHT22;11708;50.570;8.532;2022-07-23T06:18:04;20.20;99.90
23081;DHT22;11708;50.570;8.532;2022-07-23T06:20:30;20.20;99.90
23081;DHT22;11708;50.570;8.532;2022-07-23T06:22:55;21.30;99.90
23081;DHT22;11708;50.570;8.532;2022-07-23T06:25:21;21.20;99.90
23081;DHT22;11708;50.570;8.532;2022-07-23T06:27:47;20.50;99.90
23081;DHT22;11708;50.570;8.532;2022-07-23T06:30:13;20.60;99.90
23081;DHT22;11708;50.570;8.532;2022-07-23T06:32:41;20.70;99.90
23081;DHT22;11708;50.570;8.532;2022-07-23T06:35:07;22.20;99.90
23081;DHT22;11708;50.570;8.532;2022-07-23T06:37:33;20.70;99.90
23081;DHT22;11708;50.570;8.532;2022-07-23T06:42:24;20.90;99.90
23081;DHT22;11708;50.570;8.532;2022-07-23T06:44:50;20.90;99.90
23081;DHT22;11708;50.570;8.532;2022-07-23T06:49:41;21.00;99.90
23081;DHT22;11708;50.570;8.532;2022-07-23T06:52:07;21.90;99.90
23081;DHT22;11708;50.570;8.532;2022-07-23T06:54:34;21.20;99.90
23081;DHT22;11708;50.570;8.532;2022-07-23T06:56:59;21.10;99.90
23081;DHT22;11708;50.570;8.532;2022-07-23T06:59:25;21.80;99.90
23081;DHT22;11708;50.570;8.532;2022-07-23T07:01:50;21.30;99.90
23081;DHT22;11708;50.570;8.532;2022-07-23T07:04:16;21.30;99.90
23081;DHT22;11708;50.570;8.532;2022-07-23T07:06:41;21.50;99.90
23081;DHT22;11708;50.570;8.532;2022-07-23T07:09:07;22.40;99.90
23081;DHT22;11708;50.570;8.532;2022-07-23T07:11:32;21.90;99.90
23081;DHT22;11708;50.570;8.532;2022-07-23T07:18:50;21.60;99.90
23081;DHT22;11708;50.570;8.532;2022-07-23T07:21:15;21.70;99.90
23081;DHT22;11708;50.570;8.532;2022-07-23T07:23:41;21.80;99.90
23081;DHT22;11708;50.570;8.532;2022-07-23T07:26:07;21.70;99.90
23081;DHT22;11708;50.570;8.532;2022-07-23T07:28:32;21.60;99.90
23081;DHT22;11708;50.570;8.532;2022-07-23T07:30:58;21.40;99.90
23081;DHT22;11708;50.570;8.532;2022-07-23T07:33:23;22.10;99.90
23081;DHT22;11708;50.570;8.532;2022-07-23T07:38:15;21.90;99.90
23081;DHT22;11708;50.570;8.532;2022-07-23T07:40:41;21.90;99.90
23081;DHT22;11708;50.570;8.532;2022-07-23T07:43:06;21.90;99.90
23081;DHT22;11708;50.570;8.532;2022-07-23T07:45:32;23.50;99.90
23081;DHT22;11708;50.570;8.532;2022-07-23T07:47:58;22.00;99.90
23081;DHT22;11708;50.570;8.532;2022-07-23T07:50:24;22.00;99.90
23081;DHT22;11708;50.570;8.532;2022-07-23T07:55:16;22.10;99.90
23081;DHT22;11708;50.570;8.532;2022-07-23T07:57:41;22.20;99.90
23081;DHT22;11708;50.570;8.532;2022-07-23T08:00:09;23.00;99.90
23081;DHT22;11708;50.570;8.532;2022-07-23T08:02:48;22.10;99.90
23081;DHT22;11708;50.570;8.532;2022-07-23T08:05:14;21.90;99.90
23081;DHT22;11708;50.570;8.532;2022-07-23T08:10:10;21.80;99.90
23081;DHT22;11708;50.570;8.532;2022-07-23T08:12:49;21.90;99.90
23081;DHT22;11708;50.570;8.532;2022-07-23T08:15:17;21.80;99.90
23081;DHT22;11708;50.570;8.532;2022-07-23T08:17:44;21.70;99.90
23081;DHT22;11708;50.570;8.532;2022-07-23T08:20:12;21.70;99.90
23081;DHT22;11708;50.570;8.532;2022-07-23T08:25:21;21.90;99.90
23081;DHT22;11708;50.570;8.532;2022-07-23T08:27:47;22.00;99.90
23081;DHT22;11708;50.570;8.532;2022-07-23T08:30:26;22.10;99.90
23081;DHT22;11708;50.570;8.532;2022-07-23T08:33:06;22.20;99.90
23081;DHT22;11708;50.570;8.532;2022-07-23T08:38:00;22.30;99.90
23081;DHT22;11708;50.570;8.532;2022-07-23T08:40:27;22.60;99.90
23081;DHT22;11708;50.570;8.532;2022-07-23T08:42:53;22.50;99.90
23081;DHT22;11708;50.570;8.532;2022-07-23T08:45:21;22.70;99.90
23081;DHT22;11708;50.570;8.532;2022-07-23T08:47:51;22.60;99.90
23081;DHT22;11708;50.570;8.532;2022-07-23T08:50:17;22.80;99.90
23081;DHT22;11708;50.570;8.532;2022-07-23T08:52:43;22.80;99.90
23081;DHT22;11708;50.570;8.532;2022-07-23T08:55:09;22.70;99.90
23081;DHT22;11708;50.570;8.532;2022-07-23T08:57:35;22.70;99.90
23081;DHT22;11708;50.570;8.532;2022-07-23T09:00:00;22.70;99.90
23081;DHT22;11708;50.570;8.532;2022-07-23T09:02:28;23.00;99.90
23081;DHT22;11708;50.570;8.532;2022-07-23T09:04:54;22.90;99.90
23081;DHT22;11708;50.570;8.532;2022-07-23T09:07:19;23.00;99.90
23081;DHT22;11708;50.570;8.532;2022-07-23T09:09:45;23.00;99.90
23081;DHT22;11708;50.570;8.532;2022-07-23T09:12:11;23.10;99.90
23081;DHT22;11708;50.570;8.532;2022-07-23T09:14:45;23.30;99.90
23081;DHT22;11708;50.570;8.532;2022-07-23T09:17:17;23.40;99.90
23081;DHT22;11708;50.570;8.532;2022-07-23T09:19:44;23.60;99.90
23081;DHT22;11708;50.570;8.532;2022-07-23T09:22:25;23.70;99.90
23081;DHT22;11708;50.570;8.532;2022-07-23T09:27:55;23.60;99.90
23081;DHT22;11708;50.570;8.532;2022-07-23T09:30:25;23.70;99.90
23081;DHT22;11708;50.570;8.532;2022-07-23T09:33:08;23.80;99.90
23081;DHT22;11708;50.570;8.532;2022-07-23T09:35:53;23.80;99.90
23081;DHT22;11708;50.570;8.532;2022-07-23T09:38:21;23.90;99.90
23081;DHT22;11708;50.570;8.532;2022-07-23T09:41:07;23.90;99.90
23081;DHT22;11708;50.570;8.532;2022-07-23T09:43:33;24.10;99.90
23081;DHT22;11708;50.570;8.532;2022-07-23T09:46:20;24.20;99.90
23081;DHT22;11708;50.570;8.532;2022-07-23T09:48:54;24.30;99.90
23081;DHT22;11708;50.570;8.532;2022-07-23T09:51:22;24.50;99.90
23081;DHT22;11708;50.570;8.532;2022-07-23T09:54:03;24.50;99.90
23081;DHT22;11708;50.570;8.532;2022-07-23T09:56:29;24.40;99.90
23081;DHT22;11708;50.570;8.532;2022-07-23T09:58:55;24.50;99.90
23081;DHT22;11708;50.570;8.532;2022-07-23T10:01:44;25.20;99.90
23081;DHT22;11708;50.570;8.532;2022-07-23T10:04:11;24.80;99.90
23081;DHT22;11708;50.570;8.532;2022-07-23T10:06:39;24.90;99.90
23081;DHT22;11708;50.570;8.532;2022-07-23T10:09:05;25.00;99.90
23081;DHT22;11708;50.570;8.532;2022-07-23T10:11:33;25.00;99.90
23081;DHT22;11708;50.570;8.532;2022-07-23T10:13:59;25.10;99.90
23081;DHT22;11708;50.570;8.532;2022-07-23T10:16:29;25.10;99.90
23081;DHT22;11708;50.570;8.532;2022-07-23T10:18:55;25.20;99.90
23081;DHT22;11708;50.570;8.532;2022-07-23T10:21:37;25.30;99.90
23081;DHT22;11708;50.570;8.532;2022-07-23T10:33:20;25.20;99.90
23081;DHT22;11708;50.570;8.532;2022-07-23T10:36:12;25.30;99.90
23081;DHT22;11708;50.570;8.532;2022-07-23T10:38:58;25.30;99.90
23081;DHT22;11708;50.570;8.532;2022-07-23T10:41:37;25.30;99.90
23081;DHT22;11708;50.570;8.532;2022-07-23T10:46:34;25.30;99.90
23081;DHT22;11708;50.570;8.532;2022-07-23T10:49:27;25.40;99.90
23081;DHT22;11708;50.570;8.532;2022-07-23T10:54:41;25.60;99.90
23081;DHT22;11708;50.570;8.532;2022-07-23T10:57:08;25.70;99.90
23081;DHT22;11708;50.570;8.532;2022-07-23T11:02:32;25.90;99.90
23081;DHT22;11708;50.570;8.532;2022-07-23T11:07:27;25.80;99.90
23081;DHT22;11708;50.570;8.532;2022-07-23T11:09:53;25.90;99.90
23081;DHT22;11708;50.570;8.532;2022-07-23T11:15:10;26.10;99.90
23081;DHT22;11708;50.570;8.532;2022-07-23T11:17:59;26.20;99.90
23081;DHT22;11708;50.570;8.532;2022-07-23T11:20:29;26.30;99.90
23081;DHT22;11708;50.570;8.532;2022-07-23T11:22:57;26.50;99.90
23081;DHT22;11708;50.570;8.532;2022-07-23T11:27:51;26.70;99.90
23081;DHT22;11708;50.570;8.532;2022-07-23T11:32:52;27.00;99.90
23081;DHT22;11708;50.570;8.532;2022-07-23T11:35:26;27.00;99.90
23081;DHT22;11708;50.570;8.532;2022-07-23T11:38:02;27.10;99.90
23081;DHT22;11708;50.570;8.532;2022-07-23T11:40:28;27.20;99.90
23081;DHT22;11708;50.570;8.532;2022-07-23T11:43:01;27.30;99.90
23081;DHT22;11708;50.570;8.532;2022-07-23T11:45:37;27.50;99.90
23081;DHT22;11708;50.570;8.532;2022-07-23T11:48:04;27.70;99.90
23081;DHT22;11708;50.570;8.532;2022-07-23T11:50:31;27.70;99.90
23081;DHT22;11708;50.570;8.532;2022-07-23T11:52:57;27.60;99.90
23081;DHT22;11708;50.570;8.532;2022-07-23T11:55:23;27.70;99.90
23081;DHT22;11708;50.570;8.532;2022-07-23T11:57:51;27.90;99.90
23081;DHT22;11708;50.570;8.532;2022-07-23T12:00:19;28.20;99.90
23081;DHT22;11708;50.570;8.532;2022-07-23T12:02:51;28.40;99.90
23081;DHT22;11708;50.570;8.532;2022-07-23T12:05:19;29.20;99.90
23081;DHT22;11708;50.570;8.532;2022-07-23T12:07:47;29.80;99.90
23081;DHT22;11708;50.570;8.532;2022-07-23T12:12:53;29.40;97.00
23081;DHT22;11708;50.570;8.532;2022-07-23T12:15:22;29.60;97.60
23081;DHT22;11708;50.570;8.532;2022-07-23T12:17:49;29.80;96.30
23081;DHT22;11708;50.570;8.532;2022-07-23T12:20:17;29.90;95.40
23081;DHT22;11708;50.570;8.532;2022-07-23T12:22:47;30.00;94.40
23081;DHT22;11708;50.570;8.532;2022-07-23T12:25:16;30.20;93.00
23081;DHT22;11708;50.570;8.532;2022-07-23T12:27:43;30.40;94.00
23081;DHT22;11708;50.570;8.532;2022-07-23T12:30:17;30.60;93.50
23081;DHT22;11708;50.570;8.532;2022-07-23T12:32:44;30.70;92.30
23081;DHT22;11708;50.570;8.532;2022-07-23T12:35:11;30.80;90.60
23081;DHT22;11708;50.570;8.532;2022-07-23T12:37:38;30.60;88.70
23081;DHT22;11708;50.570;8.532;2022-07-23T12:40:27;30.40;87.80
23081;DHT22;11708;50.570;8.532;2022-07-23T12:43:05;30.50;94.00
23081;DHT22;11708;50.570;8.532;2022-07-23T12:45:45;30.10;87.10
23081;DHT22;11708;50.570;8.532;2022-07-23T12:48:31;30.20;88.40
23081;DHT22;11708;50.570;8.532;2022-07-23T12:51:02;30.00;86.10
23081;DHT22;11708;50.570;8.532;2022-07-23T12:56:04;30.30;84.30
23081;DHT22;11708;50.570;8.532;2022-07-23T13:01:30;30.70;81.70
23081;DHT22;11708;50.570;8.532;2022-07-23T13:04:03;30.90;81.40
23081;DHT22;11708;50.570;8.532;2022-07-23T13:06:35;31.20;82.50
23081;DHT22;11708;50.570;8.532;2022-07-23T13:09:07;31.50;79.80
23081;DHT22;11708;50.570;8.532;2022-07-23T13:11:34;31.70;80.50
23081;DHT22;11708;50.570;8.532;2022-07-23T13:14:00;32.10;88.00
23081;DHT22;11708;50.570;8.532;2022-07-23T13:16:27;31.70;76.80
23081;DHT22;11708;50.570;8.532;2022-07-23T13:18:53;31.70;77.50
23081;DHT22;11708;50.570;8.532;2022-07-23T13:21:18;32.10;86.20
23081;DHT22;11708;50.570;8.532;2022-07-23T13:23:44;31.90;73.50
23081;DHT22;11708;50.570;8.532;2022-07-23T13:26:10;32.10;73.70
23081;DHT22;11708;50.570;8.532;2022-07-23T13:28:35;32.30;72.40
23081;DHT22;11708;50.570;8.532;2022-07-23T13:31:01;32.20;84.00
23081;DHT22;11708;50.570;8.532;2022-07-23T13:33:26;32.50;73.60
23081;DHT22;11708;50.570;8.532;2022-07-23T13:35:53;32.60;72.30
23081;DHT22;11708;50.570;8.532;2022-07-23T13:38:19;32.90;73.00
23081;DHT22;11708;50.570;8.532;2022-07-23T13:40:47;33.20;80.30
23081;DHT22;11708;50.570;8.532;2022-07-23T13:43:16;33.50;70.30
23081;DHT22;11708;50.570;8.532;2022-07-23T13:45:43;33.70;67.40
23081;DHT22;11708;50.570;8.532;2022-07-23T13:48:10;33.80;66.40
23081;DHT22;11708;50.570;8.532;2022-07-23T13:50:37;33.60;66.10
23081;DHT22;11708;50.570;8.532;2022-07-23T13:53:04;33.20;66.60
23081;DHT22;11708;50.570;8.532;2022-07-23T13:55:31;32.80;66.00
23081;DHT22;11708;50.570;8.532;2022-07-23T13:57:58;32.60;66.00
23081;DHT22;11708;50.570;8.532;2022-07-23T14:00:24;32.80;68.10
23081;DHT22;11708;50.570;8.532;2022-07-23T14:02:49;33.10;65.80
23081;DHT22;11708;50.570;8.532;2022-07-23T14:07:41;33.80;63.30
23081;DHT22;11708;50.570;8.532;2022-07-23T14:10:08;33.80;63.80
23081;DHT22;11708;50.570;8.532;2022-07-23T14:12:34;33.50;63.30
23081;DHT22;11708;50.570;8.532;2022-07-23T14:15:00;33.30;64.10
23081;DHT22;11708;50.570;8.532;2022-07-23T14:19:52;32.80;63.60
23081;DHT22;11708;50.570;8.532;2022-07-23T14:22:17;32.90;65.80
23081;DHT22;11708;50.570;8.532;2022-07-23T14:24:44;33.30;72.60
23081;DHT22;11708;50.570;8.532;2022-07-23T14:27:09;33.30;62.90
23081;DHT22;11708;50.570;8.532;2022-07-23T14:29:35;33.60;62.40
23081;DHT22;11708;50.570;8.532;2022-07-23T14:32:02;33.90;60.50
23081;DHT22;11708;50.570;8.532;2022-07-23T14:34:27;34.30;60.20
23081;DHT22;11708;50.570;8.532;2022-07-23T14:36:53;34.70;57.90
23081;DHT22;11708;50.570;8.532;2022-07-23T14:39:19;34.50;57.40
23081;DHT22;11708;50.570;8.532;2022-07-23T14:41:44;34.20;58.10
23081;DHT22;11708;50.570;8.532;2022-07-23T14:44:10;33.70;67.20
23081;DHT22;11708;50.570;8.532;2022-07-23T14:46:36;33.60;57.90
23081;DHT22;11708;50.570;8.532;2022-07-23T14:49:02;32.70;70.00
23081;DHT22;11708;50.570;8.532;2022-07-23T14:51:27;32.80;60.40
23081;DHT22;11708;50.570;8.532;2022-07-23T14:53:53;32.90;60.00
23081;DHT22;11708;50.570;8.532;2022-07-23T14:56:19;33.00;61.30
23081;DHT22;11708;50.570;8.532;2022-07-23T14:58:45;32.90;59.70
23081;DHT22;11708;50.570;8.532;2022-07-23T15:01:11;32.80;69.10
23081;DHT22;11708;50.570;8.532;2022-07-23T15:03:37;32.80;59.40
23081;DHT22;11708;50.570;8.532;2022-07-23T15:06:03;33.20;59.40
23081;DHT22;11708;50.570;8.532;2022-07-23T15:08:29;32.40;69.30
23081;DHT22;11708;50.570;8.532;2022-07-23T15:10:55;32.90;59.30
23081;DHT22;11708;50.570;8.532;2022-07-23T15:13:20;32.80;59.60
23081;DHT22;11708;50.570;8.532;2022-07-23T15:15:46;32.60;60.20
23081;DHT22;11708;50.570;8.532;2022-07-23T15:18:12;32.40;75.00
23081;DHT22;11708;50.570;8.532;2022-07-23T15:20:37;32.20;71.20
23081;DHT22;11708;50.570;8.532;2022-07-23T15:23:04;32.80;61.80
23081;DHT22;11708;50.570;8.532;2022-07-23T15:25:30;33.30;60.30
23081;DHT22;11708;50.570;8.532;2022-07-23T15:27:57;33.30;58.90
23081;DHT22;11708;50.570;8.532;2022-07-23T15:30:24;33.10;58.00
23081;DHT22;11708;50.570;8.532;2022-07-23T15:32:50;33.40;58.80
23081;DHT22;11708;50.570;8.532;2022-07-23T15:35:16;33.70;58.60
23081;DHT22;11708;50.570;8.532;2022-07-23T15:37:41;34.00;58.00
23081;DHT22;11708;50.570;8.532;2022-07-23T15:40:08;34.30;55.90
23081;DHT22;11708;50.570;8.532;2022-07-23T15:42:34;34.10;56.50
23081;DHT22;11708;50.570;8.532;2022-07-23T15:44:59;34.30;57.50
23081;DHT22;11708;50.570;8.532;2022-07-23T15:47:25;34.50;58.20
23081;DHT22;11708;50.570;8.532;2022-07-23T15:49:51;34.90;58.20
23081;DHT22;11708;50.570;8.532;2022-07-23T15:52:16;35.20;57.20
23081;DHT22;11708;50.570;8.532;2022-07-23T15:54:42;35.50;56.90
23081;DHT22;11708;50.570;8.532;2022-07-23T15:57:08;35.60;56.50
23081;DHT22;11708;50.570;8.532;2022-07-23T15:59:34;35.20;55.20
23081;DHT22;11708;50.570;8.532;2022-07-23T16:02:00;35.10;55.50
23081;DHT22;11708;50.570;8.532;2022-07-23T16:04:25;35.10;55.80
23081;DHT22;11708;50.570;8.532;2022-07-23T16:06:51;35.50;56.10
23081;DHT22;11708;50.570;8.532;2022-07-23T16:09:16;35.90;54.20
23081;DHT22;11708;50.570;8.532;2022-07-23T16:11:43;36.00;53.50
23081;DHT22;11708;50.570;8.532;2022-07-23T16:16:35;35.60;53.20
23081;DHT22;11708;50.570;8.532;2022-07-23T16:19:01;35.10;52.60
23081;DHT22;11708;50.570;8.532;2022-07-23T16:21:27;35.10;53.00
23081;DHT22;11708;50.570;8.532;2022-07-23T16:23:53;35.10;53.80
23081;DHT22;11708;50.570;8.532;2022-07-23T16:26:19;34.90;53.40
23081;DHT22;11708;50.570;8.532;2022-07-23T16:28:46;34.70;53.50
23081;DHT22;11708;50.570;8.532;2022-07-23T16:31:12;34.20;61.30
23081;DHT22;11708;50.570;8.532;2022-07-23T16:33:39;34.30;53.80
23081;DHT22;11708;50.570;8.532;2022-07-23T16:36:06;34.30;53.70
23081;DHT22;11708;50.570;8.532;2022-07-23T16:38:36;34.00;52.50
23081;DHT22;11708;50.570;8.532;2022-07-23T16:41:03;33.00;54.20
23081;DHT22;11708;50.570;8.532;2022-07-23T16:43:29;33.60;53.60
23081;DHT22;11708;50.570;8.532;2022-07-23T16:50:50;33.30;54.80
23081;DHT22;11708;50.570;8.532;2022-07-23T16:53:16;33.50;54.70
23081;DHT22;11708;50.570;8.532;2022-07-23T16:55:42;33.20;54.20
23081;DHT22;11708;50.570;8.532;2022-07-23T16:58:07;33.10;54.80
23081;DHT22;11708;50.570;8.532;2022-07-23T17:00:33;33.10;54.90
23081;DHT22;11708;50.570;8.532;2022-07-23T17:02:59;33.10;55.60
23081;DHT22;11708;50.570;8.532;2022-07-23T17:05:24;33.30;55.70
23081;DHT22;11708;50.570;8.532;2022-07-23T17:10:18;33.50;55.80
23081;DHT22;11708;50.570;8.532;2022-07-23T17:12:44;33.50;55.60
23081;DHT22;11708;50.570;8.532;2022-07-23T17:15:10;33.50;63.50
23081;DHT22;11708;50.570;8.532;2022-07-23T17:17:36;33.50;55.70
23081;DHT22;11708;50.570;8.532;2022-07-23T17:20:04;33.50;55.70
23081;DHT22;11708;50.570;8.532;2022-07-23T17:22:31;33.30;55.40
23081;DHT22;11708;50.570;8.532;2022-07-23T17:24:56;33.10;56.00
23081;DHT22;11708;50.570;8.532;2022-07-23T17:27:22;32.90;56.90
23081;DHT22;11708;50.570;8.532;2022-07-23T17:32:14;32.50;56.60
23081;DHT22;11708;50.570;8.532;2022-07-23T17:34:39;32.50;57.70
23081;DHT22;11708;50.570;8.532;2022-07-23T17:37:05;32.30;57.30
23081;DHT22;11708;50.570;8.532;2022-07-23T17:39:30;32.10;57.30
23081;DHT22;11708;50.570;8.532;2022-07-23T17:41:56;31.80;58.10
23081;DHT22;11708;50.570;8.532;2022-07-23T17:44:22;31.60;58.50
23081;DHT22;11708;50.570;8.532;2022-07-23T17:46:48;31.50;59.40
23081;DHT22;11708;50.570;8.532;2022-07-23T17:49:13;31.20;59.70
23081;DHT22;11708;50.570;8.532;2022-07-23T17:51:39;31.10;59.30
23081;DHT22;11708;50.570;8.532;2022-07-23T17:58:57;30.70;59.90
23081;DHT22;11708;50.570;8.532;2022-07-23T18:01:23;30.50;60.40
23081;DHT22;11708;50.570;8.532;2022-07-23T18:03:49;30.40;61.20
23081;DHT22;11708;50.570;8.532;2022-07-23T18:06:16;30.20;62.20
23081;DHT22;11708;50.570;8.532;2022-07-23T18:08:42;30.10;62.50
23081;DHT22;11708;50.570;8.532;2022-07-23T18:13:34;30.10;62.60
23081;DHT22;11708;50.570;8.532;2022-07-23T18:15:59;30.10;64.10
23081;DHT22;11708;50.570;8.532;2022-07-23T18:18:25;30.00;63.80